Terminal Aerodrome Forecast
Issued by NWS

Current Version | Previous Version | Text Only | Print | Product List | Glossary Off
Versions: 1 2 3 4 5 6 7 8 9 10 11 12 13 14 15 16

276
FTUS44 KCRP 232334
TAFLRD
TAF
KLRD 232334Z 2400/2424 14007KT P6SM BKN070
     FM241100 16005KT P6SM SCT025 BKN200
      TEMPO 2411/2413 BKN025
     FM241600 15012KT P6SM SCT040
     FM242000 15015G20KT P6SM BKN070=

USA.gov is the U.S. government's official web portal to all federal, state and local government web resources and services.